Time;durP1;ratioP1;P1;durP2;ratioP2;P2;SDS_P1;SDS_P2;PMS_P1;PMS_P2;Temp;Humidity;BMP_temperature;BMP_pressure;BME280_temperature;BME280_humidity;BME280_pressure;Samples;Min_cycle;Max_cycle;Signal;HPM_P1;HPM_P2
2023/07/17 00:01:44;;;;;;;8.43;3.10;;;;;;;16.94;88.61;101483.28;5061953;28;20111;-54
2023/07/17 00:04:10;;;;;;;6.53;3.33;;;;;;;16.91;88.13;101483.56;5054867;28;20533;-57
2023/07/17 00:06:35;;;;;;;5.72;3.47;;;;;;;16.88;89.07;101483.00;5059999;28;20024;-56
2023/07/17 00:09:00;;;;;;;6.95;3.10;;;;;;;16.88;88.94;101483.84;5052811;28;20056;-57
2023/07/17 00:11:26;;;;;;;5.85;3.17;;;;;;;16.84;88.15;101482.41;5056702;28;20103;-58
2023/07/17 00:13:51;;;;;;;6.25;3.45;;;;;;;16.76;88.25;101482.28;5057114;28;20366;-57
2023/07/17 00:16:16;;;;;;;5.97;3.35;;;;;;;16.72;88.88;101481.72;5058984;28;20490;-57
2023/07/17 00:18:41;;;;;;;4.85;3.33;;;;;;;16.69;89.02;101484.69;5057082;28;20025;-58
2023/07/17 00:21:07;;;;;;;6.43;3.33;;;;;;;16.62;89.93;101483.53;5055434;28;20079;-57
2023/07/17 00:23:32;;;;;;;5.45;3.30;;;;;;;16.64;88.54;101486.94;5062087;28;20366;-57
2023/07/17 00:25:58;;;;;;;6.38;3.50;;;;;;;16.56;89.51;101484.97;5058323;28;20103;-58
2023/07/17 00:28:24;;;;;;;6.13;3.40;;;;;;;16.55;90.40;101482.41;5060760;28;20081;-56
2023/07/17 00:30:49;;;;;;;7.75;3.40;;;;;;;16.52;88.86;101482.69;5058924;28;20037;-57
2023/07/17 00:33:14;;;;;;;7.95;3.33;;;;;;;16.51;88.24;101497.09;5060222;28;20449;-56
2023/07/17 00:35:40;;;;;;;8.35;3.67;;;;;;;16.42;89.11;101482.69;5056407;28;20021;-57
2023/07/17 00:38:06;;;;;;;6.82;3.38;;;;;;;16.37;88.90;101499.22;5055813;28;20469;-57
2023/07/17 00:40:31;;;;;;;7.32;3.13;;;;;;;16.31;88.88;101486.34;5057398;28;20029;-58
2023/07/17 00:43:00;;;;;;;6.63;3.30;;;;;;;16.30;89.76;101492.69;5056712;28;20032;-58
2023/07/17 00:45:31;;;;;;;7.28;3.70;;;;;;;16.20;89.36;101475.75;5058046;28;20077;-58
2023/07/17 00:47:57;;;;;;;8.25;3.33;;;;;;;16.23;89.74;101495.06;5060296;28;20025;-57
2023/07/17 00:50:22;;;;;;;6.63;3.40;;;;;;;16.21;90.07;101501.59;5065313;28;20039;-57
2023/07/17 00:52:48;;;;;;;6.80;3.40;;;;;;;16.14;89.81;101509.31;5059664;28;20025;-55
2023/07/17 00:55:14;;;;;;;9.18;3.30;;;;;;;16.13;89.77;101504.09;5054253;28;20036;-57
2023/07/17 00:57:40;;;;;;;7.22;3.67;;;;;;;16.09;90.01;101509.72;5061847;28;20065;-57
2023/07/17 01:00:08;;;;;;;6.05;3.58;;;;;;;16.08;89.62;101501.81;5056252;28;20025;-56
2023/07/17 01:02:34;;;;;;;6.07;3.10;;;;;;;16.04;90.10;101505.78;5061115;28;20120;-57
2023/07/17 01:04:59;;;;;;;8.85;3.30;;;;;;;15.98;90.22;101501.81;5063176;28;20397;-56
2023/07/17 01:07:25;;;;;;;7.88;3.40;;;;;;;15.96;89.90;101506.47;5057462;28;20047;-55
2023/07/17 01:09:50;;;;;;;8.55;3.47;;;;;;;15.93;90.58;101503.22;5062507;28;20446;-57
2023/07/17 01:12:15;;;;;;;6.00;3.38;;;;;;;15.91;90.53;101503.34;5057012;28;20134;-54
2023/07/17 01:14:41;;;;;;;6.93;3.38;;;;;;;15.88;90.89;101498.25;5061467;28;20044;-54
2023/07/17 01:17:06;;;;;;;9.20;3.15;;;;;;;15.86;90.24;101501.06;5057213;28;20454;-56
2023/07/17 01:19:32;;;;;;;6.85;3.38;;;;;;;15.84;90.27;101503.03;5060113;28;20056;-58
2023/07/17 01:22:04;;;;;;;7.20;3.40;;;;;;;15.81;91.16;101513.19;5063389;28;20478;-57
2023/07/17 01:24:29;;;;;;;8.05;3.60;;;;;;;15.76;91.30;101521.63;5060180;28;20036;-55
2023/07/17 01:26:55;;;;;;;7.38;3.47;;;;;;;15.79;90.53;101523.19;5059935;28;20021;-54
2023/07/17 01:29:20;;;;;;;6.88;3.08;;;;;;;15.72;91.25;101518.31;5056240;28;20024;-57
2023/07/17 01:31:45;;;;;;;5.90;3.55;;;;;;;15.70;90.96;101524.78;5053757;28;20505;-58
2023/07/17 01:34:11;;;;;;;8.18;3.50;;;;;;;15.66;91.55;101521.53;5055382;28;20025;-57
2023/07/17 01:36:36;;;;;;;7.15;3.45;;;;;;;15.66;91.64;101528.72;5059575;28;20470;-57
2023/07/17 01:39:02;;;;;;;7.25;3.40;;;;;;;15.67;92.32;101525.06;5057858;28;20407;-57
2023/07/17 01:41:27;;;;;;;8.60;3.20;;;;;;;15.66;91.90;101528.72;5058236;28;20041;-56
2023/07/17 01:43:52;;;;;;;7.75;3.20;;;;;;;15.65;91.47;101517.16;5061640;28;20032;-57
2023/07/17 01:46:18;;;;;;;9.07;3.15;;;;;;;15.60;92.03;101511.34;5056807;28;20025;-57
2023/07/17 01:48:44;;;;;;;6.35;3.13;;;;;;;15.58;92.32;101515.16;5059702;28;20028;-56
2023/07/17 01:51:09;;;;;;;5.45;3.25;;;;;;;15.61;92.58;101521.09;5060434;28;20367;-58
2023/07/17 01:53:34;;;;;;;8.75;3.47;;;;;;;15.60;92.96;101530.09;5057354;28;20027;-57
2023/07/17 01:56:00;;;;;;;7.50;3.55;;;;;;;15.59;92.38;101517.72;5060483;28;20107;-56
2023/07/17 01:58:26;;;;;;;9.57;4.22;;;;;;;15.51;92.58;101522.88;5061157;28;20068;-57
2023/07/17 02:00:57;;;;;;;6.90;3.17;;;;;;;15.50;92.72;101523.84;5059999;28;20108;-56
2023/07/17 02:03:22;;;;;;;7.07;3.60;;;;;;;15.48;91.71;101523.97;5061001;28;20021;-54
2023/07/17 02:05:50;;;;;;;6.90;3.42;;;;;;;15.46;92.50;101523.28;5058482;28;20110;-56
2023/07/17 02:08:15;;;;;;;6.95;3.60;;;;;;;15.42;93.06;101518.31;5057808;28;20029;-54
2023/07/17 02:10:49;;;;;;;8.07;3.60;;;;;;;15.39;93.00;101522.13;5064367;28;20020;-56
2023/07/17 02:13:14;;;;;;;9.15;3.70;;;;;;;15.36;92.64;101520.53;5068408;28;20021;-56
2023/07/17 02:15:40;;;;;;;9.23;3.60;;;;;;;15.31;92.84;101517.41;5066568;28;20078;-54
2023/07/17 02:18:06;;;;;;;9.00;3.55;;;;;;;15.28;93.12;101530.22;5061147;28;20017;-56
2023/07/17 02:20:31;;;;;;;9.68;3.55;;;;;;;15.24;92.91;101526.09;5065150;28;20465;-57
2023/07/17 02:22:57;;;;;;;9.50;3.83;;;;;;;15.22;92.23;101528.94;5058711;28;20029;-57
2023/07/17 02:25:22;;;;;;;7.85;3.38;;;;;;;15.20;92.52;101530.03;5065129;28;20054;-55
2023/07/17 02:27:47;;;;;;;8.10;3.50;;;;;;;15.17;92.34;101537.34;5061601;28;20090;-55
2023/07/17 02:30:12;;;;;;;7.68;3.72;;;;;;;15.13;93.38;101529.69;5067434;28;20486;-57
2023/07/17 02:32:38;;;;;;;7.28;3.58;;;;;;;15.13;93.40;101530.53;5060416;28;20052;-56
2023/07/17 02:35:04;;;;;;;7.45;3.35;;;;;;;15.09;92.51;101531.78;5060975;28;20032;-58
2023/07/17 02:37:29;;;;;;;8.48;4.03;;;;;;;15.06;93.03;101531.22;5061484;28;20390;-56
2023/07/17 02:39:55;;;;;;;6.80;3.25;;;;;;;15.04;93.05;101536.69;5062809;28;20242;-55
2023/07/17 02:42:20;;;;;;;7.78;3.58;;;;;;;14.99;93.73;101541.56;5061581;28;20025;-54
2023/07/17 02:44:46;;;;;;;7.43;3.25;;;;;;;14.98;93.64;101547.91;5059712;28;20012;-57
2023/07/17 02:47:12;;;;;;;8.45;3.80;;;;;;;14.95;93.62;101545.47;5062080;28;20028;-57
2023/07/17 02:49:38;;;;;;;8.68;3.35;;;;;;;14.93;93.78;101544.75;5061857;28;20082;-54
2023/07/17 02:52:04;;;;;;;6.78;3.40;;;;;;;14.91;93.68;101541.38;5060581;28;20029;-57
2023/07/17 02:54:30;;;;;;;7.13;3.58;;;;;;;14.88;93.09;101547.81;5064450;28;20056;-56
2023/07/17 02:56:55;;;;;;;7.43;3.65;;;;;;;14.90;94.09;101547.69;5064612;28;20052;-56
2023/07/17 02:59:21;;;;;;;8.18;3.47;;;;;;;14.90;93.61;101550.34;5063040;28;20029;-53
2023/07/17 03:01:48;;;;;;;7.07;3.40;;;;;;;14.86;93.87;101551.59;5064076;28;20033;-58
2023/07/17 03:04:13;;;;;;;9.48;3.42;;;;;;;14.81;93.93;101549.31;5062000;28;20025;-57
2023/07/17 03:06:38;;;;;;;6.15;3.08;;;;;;;14.77;94.49;101547.84;5065364;28;20036;-57
2023/07/17 03:09:04;;;;;;;10.98;3.80;;;;;;;14.72;94.72;101563.44;5062047;28;20047;-57
2023/07/17 03:11:29;;;;;;;6.57;3.30;;;;;;;14.69;94.51;101561.88;5061506;28;20028;-56
2023/07/17 03:13:55;;;;;;;8.13;3.17;;;;;;;14.65;94.92;101567.59;5063442;28;20021;-57
2023/07/17 03:16:20;;;;;;;8.75;3.30;;;;;;;14.64;94.29;101565.88;5057942;28;20074;-55
2023/07/17 03:18:45;;;;;;;8.23;3.47;;;;;;;14.62;95.02;101568.69;5062347;28;20025;-56
2023/07/17 03:21:11;;;;;;;6.97;3.22;;;;;;;14.61;95.79;101569.69;5061270;28;20034;-57
2023/07/17 03:23:36;;;;;;;8.55;3.70;;;;;;;14.57;95.30;101563.72;5061460;28;20021;-56
2023/07/17 03:26:02;;;;;;;8.23;3.60;;;;;;;14.55;95.66;101568.31;5059581;28;20029;-55
2023/07/17 03:28:27;;;;;;;9.10;3.72;;;;;;;14.53;95.18;101572.94;5065901;28;20035;-57
2023/07/17 03:30:52;;;;;;;7.68;3.70;;;;;;;14.52;95.34;101571.25;5062849;28;20033;-57
2023/07/17 03:33:17;;;;;;;7.40;3.40;;;;;;;14.49;95.08;101576.84;5064286;28;20044;-56
2023/07/17 03:35:43;;;;;;;10.65;3.47;;;;;;;14.49;95.40;101568.84;5059641;28;20053;-57
2023/07/17 03:38:08;;;;;;;7.25;3.40;;;;;;;14.50;95.56;101575.84;5059863;28;20079;-54
2023/07/17 03:40:33;;;;;;;9.43;3.50;;;;;;;14.49;95.57;101576.84;5057603;28;20043;-54
2023/07/17 03:42:59;;;;;;;8.07;3.47;;;;;;;14.43;95.77;101577.34;5064688;28;20468;-55
2023/07/17 03:45:24;;;;;;;10.75;4.07;;;;;;;14.42;95.42;101575.63;5060834;28;20031;-54
2023/07/17 03:47:50;;;;;;;8.95;3.28;;;;;;;14.37;96.00;101567.16;5065434;28;20373;-57
2023/07/17 03:50:16;;;;;;;9.80;3.28;;;;;;;14.37;96.09;101575.16;5059014;28;20098;-57
2023/07/17 03:52:41;;;;;;;9.27;3.97;;;;;;;14.36;95.28;101578.81;5061847;28;20012;-56
2023/07/17 03:55:07;;;;;;;8.88;3.47;;;;;;;14.32;95.66;101583.56;5060081;28;20036;-55
2023/07/17 03:57:32;;;;;;;7.63;3.70;;;;;;;14.29;95.47;101586.50;5056046;28;20028;-56
2023/07/17 03:59:57;;;;;;;7.75;3.55;;;;;;;14.28;95.14;101581.25;5056666;28;20025;-56
2023/07/17 04:02:23;;;;;;;7.18;3.60;;;;;;;14.27;95.71;101582.22;5065994;28;20079;-57
2023/07/17 04:04:50;;;;;;;7.60;3.40;;;;;;;14.26;95.41;101581.38;5060555;28;20108;-56
2023/07/17 04:07:15;;;;;;;10.30;3.78;;;;;;;14.24;95.97;101594.88;5058227;28;20075;-57
2023/07/17 04:09:41;;;;;;;9.10;3.80;;;;;;;14.19;96.25;101593.56;5057800;28;20048;-56
2023/07/17 04:12:07;;;;;;;9.35;3.38;;;;;;;14.19;95.72;101594.38;5061710;28;20401;-57
2023/07/17 04:14:33;;;;;;;8.23;4.05;;;;;;;14.16;96.61;101601.81;5058334;28;20031;-57
2023/07/17 04:16:59;;;;;;;10.63;4.30;;;;;;;14.18;95.53;101600.69;5058822;28;20456;-56
2023/07/17 04:19:24;;;;;;;10.10;3.60;;;;;;;14.19;95.87;101604.25;5057375;28;20031;-57
2023/07/17 04:21:49;;;;;;;7.68;3.95;;;;;;;14.18;96.11;101600.69;5056988;28;20040;-54
2023/07/17 04:24:15;;;;;;;11.55;4.20;;;;;;;14.21;95.67;101608.47;5059010;28;20047;-57
2023/07/17 04:26:40;;;;;;;10.05;4.18;;;;;;;14.21;96.06;101600.44;5061248;28;20366;-57
2023/07/17 04:29:10;;;;;;;8.55;4.03;;;;;;;14.21;96.08;101605.78;5056734;28;20071;-56
2023/07/17 04:31:35;;;;;;;9.98;4.30;;;;;;;14.23;96.00;101608.34;5060441;28;20123;-57
2023/07/17 04:34:01;;;;;;;7.70;3.58;;;;;;;14.24;95.88;101608.22;5059509;28;20143;-57
2023/07/17 04:36:26;;;;;;;12.23;4.38;;;;;;;14.25;95.97;101617.09;5062089;28;20191;-57
2023/07/17 04:38:52;;;;;;;14.25;4.70;;;;;;;14.23;95.93;101621.72;5058854;28;20100;-58
2023/07/17 04:41:17;;;;;;;10.82;4.50;;;;;;;14.25;95.94;101620.63;5060672;28;20044;-58
2023/07/17 04:43:43;;;;;;;8.98;4.28;;;;;;;14.28;96.16;101624.03;5058312;28;20044;-58
2023/07/17 04:46:08;;;;;;;8.63;4.43;;;;;;;14.28;96.03;101621.34;5058706;28;20017;-56
2023/07/17 04:48:34;;;;;;;10.15;4.40;;;;;;;14.29;96.33;101626.56;5060924;28;20032;-57
2023/07/17 04:50:59;;;;;;;9.43;4.53;;;;;;;14.33;96.27;101635.19;5065258;28;20120;-55
2023/07/17 04:53:24;;;;;;;10.38;4.82;;;;;;;14.31;96.25;101629.13;5068372;28;20136;-56
2023/07/17 04:55:50;;;;;;;8.57;4.95;;;;;;;14.36;96.44;101627.78;5060457;28;20028;-56
2023/07/17 04:58:15;;;;;;;10.07;4.88;;;;;;;14.40;96.68;101626.53;5056277;28;20025;-57
2023/07/17 05:00:42;;;;;;;9.25;4.82;;;;;;;14.48;96.20;101633.94;5058627;28;20317;-57
2023/07/17 05:03:08;;;;;;;14.23;4.65;;;;;;;14.55;96.69;101639.66;5057265;28;20467;-57
2023/07/17 05:05:33;;;;;;;9.93;4.90;;;;;;;14.59;96.66;101642.00;5058547;28;20032;-57
2023/07/17 05:07:58;;;;;;;15.20;5.75;;;;;;;14.64;95.82;101644.28;5058152;28;20037;-56
2023/07/17 05:10:24;;;;;;;12.65;5.72;;;;;;;14.72;95.58;101643.66;5059882;28;20456;-57
2023/07/17 05:12:49;;;;;;;13.18;5.68;;;;;;;14.80;95.48;101646.56;5058363;28;20102;-56
2023/07/17 05:15:14;;;;;;;14.68;5.32;;;;;;;14.88;95.15;101643.25;5067526;28;20024;-56
2023/07/17 05:17:39;;;;;;;10.52;5.07;;;;;;;14.92;95.10;101642.88;5055775;28;20107;-54
2023/07/17 05:20:06;;;;;;;12.50;5.15;;;;;;;14.95;94.57;101644.44;5061432;28;20225;-55
2023/07/17 05:22:32;;;;;;;8.85;4.78;;;;;;;15.01;94.80;101648.47;5058256;28;20037;-58
2023/07/17 05:24:58;;;;;;;11.60;5.03;;;;;;;15.02;94.50;101644.78;5060953;28;20543;-57
2023/07/17 05:27:23;;;;;;;10.13;4.80;;;;;;;15.05;94.48;101648.06;5056395;28;20375;-56
2023/07/17 05:29:49;;;;;;;10.27;5.05;;;;;;;15.08;94.90;101642.44;5060103;28;20531;-57
2023/07/17 05:32:14;;;;;;;7.70;4.68;;;;;;;15.14;94.92;101652.66;5059455;28;20049;-57
2023/07/17 05:34:39;;;;;;;13.38;5.18;;;;;;;15.22;95.14;101653.84;5060204;28;20024;-57
2023/07/17 05:37:05;;;;;;;8.57;4.85;;;;;;;15.31;94.34;101658.44;5057698;28;20025;-56
2023/07/17 05:39:31;;;;;;;12.18;4.60;;;;;;;15.46;93.03;101656.28;5061444;28;20118;-58
2023/07/17 05:41:56;;;;;;;7.90;3.88;;;;;;;15.57;92.55;101660.72;5055765;28;20071;-57
2023/07/17 05:44:21;;;;;;;11.35;5.18;;;;;;;15.72;92.85;101659.41;5058677;28;20028;-56
2023/07/17 05:46:47;;;;;;;10.70;5.13;;;;;;;15.89;91.57;101664.22;5064363;28;20116;-57
2023/07/17 05:49:12;;;;;;;10.77;4.80;;;;;;;16.06;90.91;101660.06;5063637;28;20382;-56
2023/07/17 05:51:38;;;;;;;11.75;4.97;;;;;;;16.21;90.72;101665.09;5062102;28;20032;-56
2023/07/17 05:54:03;;;;;;;12.57;5.32;;;;;;;16.33;88.50;101673.88;5063397;28;20033;-55
2023/07/17 05:56:28;;;;;;;9.35;4.80;;;;;;;16.45;88.90;101673.66;5061376;28;20445;-57
2023/07/17 05:58:54;;;;;;;11.82;5.13;;;;;;;16.64;87.17;101672.00;5064955;28;20469;-57
2023/07/17 06:01:19;;;;;;;11.38;4.85;;;;;;;16.85;86.51;101674.59;5061087;28;20483;-55
2023/07/17 06:03:45;;;;;;;10.68;4.95;;;;;;;16.96;85.94;101674.50;5066378;28;20040;-56
2023/07/17 06:06:10;;;;;;;15.52;5.22;;;;;;;17.07;84.91;101667.28;5064906;28;20025;-55
2023/07/17 06:08:35;;;;;;;12.63;4.97;;;;;;;17.16;82.82;101680.72;5062589;28;20397;-56
2023/07/17 06:11:01;;;;;;;10.40;4.80;;;;;;;17.28;82.56;101680.59;5061398;28;20466;-57
2023/07/17 06:13:26;;;;;;;12.40;5.45;;;;;;;17.42;82.46;101690.06;5062529;28;20029;-54
2023/07/17 06:15:51;;;;;;;12.10;5.43;;;;;;;17.55;82.34;101685.25;5064130;28;20489;-52
2023/07/17 06:18:17;;;;;;;10.38;5.38;;;;;;;17.65;80.90;101695.97;5061293;28;20290;-53
2023/07/17 06:20:42;;;;;;;10.38;5.05;;;;;;;17.77;80.46;101689.47;5062672;28;20436;-53
2023/07/17 06:23:07;;;;;;;13.65;5.32;;;;;;;17.86;79.74;101695.81;5062357;28;20017;-51
2023/07/17 06:25:34;;;;;;;11.52;5.03;;;;;;;17.97;79.83;101702.88;5056115;28;20029;-51
2023/07/17 06:27:59;;;;;;;11.30;5.38;;;;;;;18.08;79.95;101700.88;5059352;28;20043;-51
2023/07/17 06:30:24;;;;;;;13.07;5.05;;;;;;;18.28;78.74;101696.28;5062783;28;20024;-54
2023/07/17 06:32:50;;;;;;;10.70;4.75;;;;;;;18.44;77.81;101698.34;5063522;28;20045;-51
2023/07/17 06:35:15;;;;;;;12.05;5.32;;;;;;;18.59;76.02;101703.25;5062498;28;20494;-51
2023/07/17 06:37:40;;;;;;;10.40;4.80;;;;;;;18.71;75.85;101709.28;5061854;28;20033;-52
2023/07/17 06:40:07;;;;;;;9.73;5.05;;;;;;;18.74;74.15;101717.06;5059481;28;20028;-52
2023/07/17 06:42:33;;;;;;;14.55;5.05;;;;;;;18.91;74.65;101712.75;5058305;28;20116;-53
2023/07/17 06:44:58;;;;;;;12.95;4.88;;;;;;;19.15;76.58;101712.13;5062291;28;20452;-52
2023/07/17 06:47:24;;;;;;;12.23;4.45;;;;;;;19.33;73.65;101721.06;5056616;28;20565;-51
2023/07/17 06:49:49;;;;;;;10.77;5.13;;;;;;;19.52;71.80;101717.38;5057923;28;20367;-51
2023/07/17 06:52:14;;;;;;;10.77;5.10;;;;;;;19.72;72.02;101726.13;5061750;28;20105;-51
2023/07/17 06:54:39;;;;;;;11.27;5.18;;;;;;;19.79;70.70;101723.69;5057237;28;20048;-51
2023/07/17 06:57:06;;;;;;;15.50;5.07;;;;;;;20.00;70.69;101734.13;5057139;28;20100;-52
2023/07/17 06:59:31;;;;;;;12.80;5.30;;;;;;;20.10;69.98;101726.78;5058733;28;20053;-51
2023/07/17 07:01:56;;;;;;;9.52;4.82;;;;;;;20.37;68.70;101733.00;5058037;28;20025;-53
2023/07/17 07:04:22;;;;;;;13.90;4.95;;;;;;;20.60;67.21;101727.03;5055214;28;20033;-50
2023/07/17 07:06:47;;;;;;;12.43;4.50;;;;;;;20.83;67.95;101727.31;5056259;28;20047;-53
2023/07/17 07:09:12;;;;;;;9.88;4.15;;;;;;;20.89;66.34;101735.63;5059966;28;20013;-51
2023/07/17 07:11:38;;;;;;;11.65;4.97;;;;;;;20.89;63.81;101735.63;5059142;28;20381;-51
2023/07/17 07:14:03;;;;;;;10.25;4.68;;;;;;;20.99;64.75;101740.03;5061695;28;20074;-51
2023/07/17 07:16:28;;;;;;;9.68;4.30;;;;;;;20.98;64.10;101744.59;5054751;28;20467;-51
2023/07/17 07:18:54;;;;;;;9.13;4.25;;;;;;;21.10;61.65;101750.56;5058758;28;20016;-50
2023/07/17 07:21:19;;;;;;;8.40;4.53;;;;;;;21.27;62.64;101737.91;5058881;28;20021;-51
2023/07/17 07:23:44;;;;;;;10.05;4.20;;;;;;;21.43;64.04;101740.66;5054373;28;20048;-51
2023/07/17 07:26:10;;;;;;;15.55;4.53;;;;;;;21.36;61.91;101746.88;5054802;28;20103;-51
2023/07/17 07:28:35;;;;;;;7.70;4.68;;;;;;;21.43;60.64;101747.88;5059859;28;20081;-51
2023/07/17 07:31:02;;;;;;;11.85;4.30;;;;;;;21.38;60.64;101750.25;5059894;28;20037;-49
2023/07/17 07:33:27;;;;;;;7.05;3.60;;;;;;;21.22;61.69;101754.63;5041782;28;20075;-50
2023/07/17 07:35:53;;;;;;;9.63;4.20;;;;;;;21.15;61.05;101761.69;5038892;28;20123;-50
2023/07/17 07:38:18;;;;;;;9.90;4.22;;;;;;;21.29;62.01;101754.81;5038334;28;20037;-51
2023/07/17 07:40:43;;;;;;;14.27;4.65;;;;;;;21.33;60.67;101752.59;5038980;28;20359;-49
2023/07/17 07:43:09;;;;;;;12.55;4.68;;;;;;;21.50;61.94;101757.06;5035806;28;20100;-51
2023/07/17 07:45:34;;;;;;;11.70;4.60;;;;;;;21.46;60.90;101760.22;5043739;28;20462;-50
2023/07/17 07:47:59;;;;;;;8.15;4.13;;;;;;;21.52;61.52;101768.56;5040674;28;20080;-50
2023/07/17 07:50:25;;;;;;;11.13;4.63;;;;;;;21.64;61.81;101774.47;5040035;28;20723;-52
2023/07/17 07:52:50;;;;;;;11.55;4.30;;;;;;;21.72;60.79;101766.38;5039244;28;20021;-50
2023/07/17 07:55:15;;;;;;;10.40;4.18;;;;;;;21.74;59.65;101771.59;5040417;28;20033;-52
2023/07/17 07:57:41;;;;;;;10.23;4.28;;;;;;;21.71;58.55;101778.19;5037480;28;20026;-52
2023/07/17 08:00:07;;;;;;;9.15;4.35;;;;;;;21.69;59.49;101779.38;5038879;28;20080;-51
2023/07/17 08:02:32;;;;;;;8.43;4.30;;;;;;;21.77;59.24;101779.38;5038476;28;20021;-50
2023/07/17 08:04:57;;;;;;;9.93;4.07;;;;;;;22.06;59.35;101776.16;5038135;28;20060;-50
2023/07/17 08:07:23;;;;;;;8.65;3.97;;;;;;;22.19;59.41;101772.94;5033893;28;20077;-51
2023/07/17 08:09:48;;;;;;;8.05;4.40;;;;;;;22.38;57.63;101782.56;5035555;28;20529;-52
2023/07/17 08:12:14;;;;;;;10.98;4.15;;;;;;;22.39;57.85;101778.84;5039825;28;20029;-50
2023/07/17 08:14:39;;;;;;;10.35;4.00;;;;;;;22.35;55.76;101791.03;5038615;28;20083;-50
2023/07/17 08:17:04;;;;;;;14.82;5.07;;;;;;;22.32;56.16;101792.22;5038837;28;20087;-53
2023/07/17 08:19:30;;;;;;;12.25;4.32;;;;;;;22.43;56.98;101793.72;5038879;28;20056;-53
2023/07/17 08:21:55;;;;;;;9.15;4.40;;;;;;;22.46;54.51;101781.69;5035409;28;20035;-51
2023/07/17 08:24:20;;;;;;;9.70;4.03;;;;;;;22.43;55.31;101790.16;5037716;28;20058;-50
2023/07/17 08:26:46;;;;;;;11.88;3.78;;;;;;;22.44;55.20;101791.84;5039467;28;20279;-51
2023/07/17 08:29:11;;;;;;;11.23;4.40;;;;;;;22.48;55.11;101788.63;5040347;28;20029;-52
2023/07/17 08:31:37;;;;;;;13.57;4.45;;;;;;;22.51;54.79;101784.72;5041950;28;20051;-51
2023/07/17 08:34:05;;;;;;;9.30;4.72;;;;;;;22.57;55.85;101788.63;5054701;28;20028;-50
2023/07/17 08:36:31;;;;;;;;;;;;;;;22.84;56.05;101792.75;5058724;28;20029;-50
2023/07/17 08:38:57;;;;;;;12.50;3.90;;;;;;;22.55;54.55;101788.78;5056048;28;19919;-50
2023/07/17 08:41:22;;;;;;;9.10;3.83;;;;;;;22.73;54.60;101794.81;5055910;28;20074;-50
2023/07/17 08:43:52;;;;;;;7.18;3.90;;;;;;;22.83;53.04;101794.63;5059260;28;20017;-50
2023/07/17 08:46:18;;;;;;;8.95;3.88;;;;;;;23.16;53.01;101790.94;5058430;28;20027;-50
2023/07/17 08:48:44;;;;;;;8.07;4.03;;;;;;;23.55;52.19;101790.00;5059466;28;20107;-51
2023/07/17 08:51:14;;;;;;;10.02;3.67;;;;;;;23.77;49.73;101794.59;5053171;28;20116;-52
2023/07/17 08:53:41;;;;;;;9.88;3.83;;;;;;;24.19;51.30;101790.50;5061709;28;20028;-50
2023/07/17 08:56:07;;;;;;;10.35;3.70;;;;;;;24.46;48.10;101788.19;5058148;28;20025;-52
2023/07/17 08:58:33;;;;;;;8.27;3.88;;;;;;;24.58;47.92;101791.34;5055364;28;20036;-50
2023/07/17 09:00:58;;;;;;;7.80;3.42;;;;;;;24.54;49.42;101793.53;5059280;28;20590;-50
2023/07/17 09:03:25;;;;;;;5.57;3.78;;;;;;;24.51;49.33;101787.63;5056702;28;20033;-50
2023/07/17 09:05:50;;;;;;;8.43;3.47;;;;;;;24.39;47.39;101790.81;5054867;28;20037;-50
2023/07/17 09:08:16;;;;;;;8.65;3.45;;;;;;;24.32;48.03;101783.59;5055163;28;20111;-50
2023/07/17 09:10:42;;;;;;;6.22;3.33;;;;;;;24.33;47.11;101780.72;5055902;28;20017;-51
2023/07/17 09:13:07;;;;;;;13.88;4.20;;;;;;;24.50;48.72;101778.66;5058529;28;20092;-51
2023/07/17 09:15:33;;;;;;;10.30;3.78;;;;;;;24.56;47.42;101786.09;5058406;28;20070;-50
2023/07/17 09:18:00;;;;;;;10.65;3.53;;;;;;;24.48;46.20;101793.44;5058011;28;20051;-50
2023/07/17 09:20:26;;;;;;;6.78;3.35;;;;;;;24.37;45.63;101794.75;5061404;28;20086;-50
2023/07/17 09:22:56;;;;;;;7.85;3.78;;;;;;;24.47;47.74;101789.06;5057385;28;20040;-51
2023/07/17 09:25:25;;;;;;;8.55;3.50;;;;;;;24.35;46.68;101792.22;5056753;28;20066;-51
2023/07/17 09:27:51;;;;;;;7.55;2.97;;;;;;;24.22;45.54;101793.91;5056888;28;20036;-50
2023/07/17 09:30:18;;;;;;;4.93;2.63;;;;;;;24.42;45.96;101789.59;5060290;28;20033;-50
2023/07/17 09:32:47;;;;;;;7.47;3.22;;;;;;;24.79;45.44;101796.00;5059973;28;20114;-51
2023/07/17 09:35:13;;;;;;;7.78;4.05;;;;;;;24.79;44.69;101789.72;5060259;28;20167;-53
2023/07/17 09:37:41;;;;;;;5.88;3.15;;;;;;;24.90;43.10;101797.41;5064416;28;20021;-50
2023/07/17 09:40:09;;;;;;;6.85;3.45;;;;;;;25.24;43.90;101788.59;5065641;28;20039;-52
2023/07/17 09:42:35;;;;;;;8.48;3.38;;;;;;;25.45;42.67;101795.97;5058577;28;20493;-51
2023/07/17 09:45:02;;;;;;;11.20;3.00;;;;;;;25.76;42.39;101797.50;5063312;28;20101;-53
2023/07/17 09:47:29;;;;;;;6.72;3.20;;;;;;;25.96;41.06;101786.88;5058850;28;20026;-54
2023/07/17 09:49:56;;;;;;;7.35;3.15;;;;;;;26.08;40.76;101789.88;5057900;28;20104;-54
2023/07/17 09:52:22;;;;;;;6.00;2.90;;;;;;;26.18;41.17;101790.38;5060885;28;20032;-51
2023/07/17 09:54:53;;;;;;;4.88;2.58;;;;;;;26.17;40.97;101794.13;5058409;28;20040;-54
2023/07/17 09:57:36;;;;;;;8.45;2.80;;;;;;;26.12;42.65;101788.44;5061191;28;20033;-51
2023/07/17 10:00:11;;;;;;;7.78;2.88;;;;;;;26.03;41.16;101806.81;5058767;28;20033;-52
2023/07/17 10:02:39;;;;;;;6.80;2.95;;;;;;;26.00;41.63;101800.91;5057043;28;20061;-52
2023/07/17 10:05:06;;;;;;;3.92;2.67;;;;;;;26.30;40.52;101792.56;5055901;28;20024;-50
2023/07/17 10:07:36;;;;;;;6.18;3.17;;;;;;;26.51;40.86;101787.03;5060911;28;20060;-52
2023/07/17 10:10:03;;;;;;;7.80;3.10;;;;;;;26.32;39.72;101796.75;5059044;28;20129;-50
2023/07/17 10:12:29;;;;;;;6.60;3.13;;;;;;;26.09;38.95;101794.28;5057134;28;20033;-51
2023/07/17 10:14:56;;;;;;;7.90;3.10;;;;;;;26.23;38.89;101781.63;5059274;28;20029;-50
2023/07/17 10:17:29;;;;;;;5.18;3.10;;;;;;;26.52;40.47;101788.69;5058250;28;20029;-50
2023/07/17 10:19:57;;;;;;;6.13;3.03;;;;;;;26.39;38.54;101792.16;5057944;28;20447;-51
2023/07/17 10:22:27;;;;;;;5.50;3.25;;;;;;;26.35;40.19;101793.63;5057065;28;20039;-50
2023/07/17 10:24:52;;;;;;;5.70;3.03;;;;;;;26.53;38.05;101793.13;5059444;28;20039;-50
2023/07/17 10:27:35;;;;;;;6.03;2.80;;;;;;;26.67;41.11;101794.06;5050409;28;20025;-51
2023/07/17 10:30:22;;;;;;;5.85;3.17;;;;;;;26.57;42.00;101801.72;5064364;28;20032;-50
2023/07/17 10:33:20;;;;;;;5.65;3.03;;;;;;;26.15;38.86;101798.94;5063711;28;20049;-51
2023/07/17 10:35:49;;;;;;;6.65;2.90;;;;;;;25.96;39.39;101792.31;5059468;28;20060;-50
2023/07/17 10:38:17;;;;;;;5.30;3.20;;;;;;;25.73;40.25;101787.06;5063333;28;20098;-50
2023/07/17 10:40:43;;;;;;;4.18;2.92;;;;;;;25.94;40.14;101788.06;5056701;28;20394;-51
2023/07/17 10:43:16;;;;;;;7.68;3.35;;;;;;;26.27;39.83;101799.22;5060961;28;20033;-51
2023/07/17 10:45:43;;;;;;;8.27;3.80;;;;;;;26.53;37.55;101786.81;5056519;28;20037;-50
2023/07/17 10:48:09;;;;;;;7.00;3.50;;;;;;;26.58;39.68;101789.78;5060081;28;20478;-51
2023/07/17 10:50:35;;;;;;;7.57;3.42;;;;;;;26.57;37.98;101783.47;5061611;28;20078;-51
2023/07/17 10:53:05;;;;;;;7.60;4.15;;;;;;;26.67;38.10;101785.88;5058700;28;20493;-51
2023/07/17 10:55:34;;;;;;;5.05;3.60;;;;;;;26.89;38.68;101783.03;5058503;28;20039;-51
2023/07/17 10:58:00;;;;;;;6.65;3.40;;;;;;;27.17;38.29;101785.66;5065692;28;20071;-51
2023/07/17 11:00:25;;;;;;;5.50;3.15;;;;;;;27.51;37.95;101786.59;5059269;28;20080;-52
2023/07/17 11:02:51;;;;;;;6.97;3.17;;;;;;;27.22;38.29;101787.78;5056635;28;20496;-51
2023/07/17 11:05:17;;;;;;;6.05;3.20;;;;;;;27.25;35.15;101784.66;5062728;28;20494;-53
2023/07/17 11:07:43;;;;;;;4.63;2.65;;;;;;;27.57;36.43;101793.97;5059623;28;20039;-50
2023/07/17 11:10:12;;;;;;;4.43;2.97;;;;;;;27.76;36.44;101781.41;5062063;28;20032;-53
2023/07/17 11:12:38;;;;;;;4.57;2.95;;;;;;;27.84;36.79;101783.91;5059324;28;20500;-51
2023/07/17 11:15:11;;;;;;;8.38;3.63;;;;;;;27.82;34.46;101782.44;5054976;28;20090;-50
2023/07/17 11:17:37;;;;;;;7.97;3.80;;;;;;;27.77;35.14;101783.06;5054648;28;20063;-52